sensor_id;sensor_type;location;lat;lon;timestamp;P1;durP1;ratioP1;P2;durP2;ratioP2
3922;SDS011;1976;51.694;6.256;2023-04-03T00:02:18;5.13;;;3.10;;
3922;SDS011;1976;51.694;6.256;2023-04-03T00:04:43;3.53;;;2.50;;
3922;SDS011;1976;51.694;6.256;2023-04-03T00:07:09;4.77;;;3.00;;
3922;SDS011;1976;51.694;6.256;2023-04-03T00:09:37;4.67;;;3.17;;
3922;SDS011;1976;51.694;6.256;2023-04-03T00:12:03;3.47;;;2.70;;
3922;SDS011;1976;51.694;6.256;2023-04-03T00:14:28;6.23;;;2.70;;
3922;SDS011;1976;51.694;6.256;2023-04-03T00:16:54;6.50;;;3.10;;
3922;SDS011;1976;51.694;6.256;2023-04-03T00:19:20;5.17;;;2.73;;
3922;SDS011;1976;51.694;6.256;2023-04-03T00:21:46;4.57;;;2.70;;
3922;SDS011;1976;51.694;6.256;2023-04-03T00:24:12;9.03;;;2.90;;
3922;SDS011;1976;51.694;6.256;2023-04-03T00:26:38;4.00;;;2.77;;
3922;SDS011;1976;51.694;6.256;2023-04-03T00:29:04;12.40;;;3.13;;
3922;SDS011;1976;51.694;6.256;2023-04-03T00:31:30;4.63;;;2.70;;
3922;SDS011;1976;51.694;6.256;2023-04-03T00:33:56;3.90;;;2.50;;
3922;SDS011;1976;51.694;6.256;2023-04-03T00:36:22;3.37;;;2.60;;
3922;SDS011;1976;51.694;6.256;2023-04-03T00:38:48;2.97;;;2.33;;
3922;SDS011;1976;51.694;6.256;2023-04-03T00:41:14;3.13;;;2.83;;
3922;SDS011;1976;51.694;6.256;2023-04-03T00:43:40;2.40;;;2.20;;
3922;SDS011;1976;51.694;6.256;2023-04-03T00:46:06;3.50;;;2.77;;
3922;SDS011;1976;51.694;6.256;2023-04-03T00:48:45;7.40;;;2.33;;
3922;SDS011;1976;51.694;6.256;2023-04-03T00:51:16;4.40;;;2.53;;
3922;SDS011;1976;51.694;6.256;2023-04-03T00:53:46;5.47;;;2.73;;
3922;SDS011;1976;51.694;6.256;2023-04-03T00:56:19;7.57;;;2.83;;
3922;SDS011;1976;51.694;6.256;2023-04-03T00:58:48;2.53;;;2.33;;
3922;SDS011;1976;51.694;6.256;2023-04-03T01:01:22;13.90;;;2.43;;
3922;SDS011;1976;51.694;6.256;2023-04-03T01:03:48;3.97;;;2.57;;
3922;SDS011;1976;51.694;6.256;2023-04-03T01:06:15;6.67;;;2.77;;
3922;SDS011;1976;51.694;6.256;2023-04-03T01:08:42;6.37;;;2.70;;
3922;SDS011;1976;51.694;6.256;2023-04-03T01:11:09;6.67;;;2.70;;
3922;SDS011;1976;51.694;6.256;2023-04-03T01:13:35;6.40;;;2.70;;
3922;SDS011;1976;51.694;6.256;2023-04-03T01:16:02;2.87;;;2.10;;
3922;SDS011;1976;51.694;6.256;2023-04-03T01:18:28;2.37;;;2.03;;
3922;SDS011;1976;51.694;6.256;2023-04-03T01:23:36;2.13;;;1.93;;
3922;SDS011;1976;51.694;6.256;2023-04-03T01:26:05;5.63;;;2.47;;
3922;SDS011;1976;51.694;6.256;2023-04-03T01:28:33;2.33;;;2.20;;
3922;SDS011;1976;51.694;6.256;2023-04-03T01:31:18;3.10;;;2.10;;
3922;SDS011;1976;51.694;6.256;2023-04-03T01:33:46;4.10;;;2.23;;
3922;SDS011;1976;51.694;6.256;2023-04-03T01:36:22;9.27;;;2.60;;
3922;SDS011;1976;51.694;6.256;2023-04-03T01:38:54;2.30;;;1.60;;
3922;SDS011;1976;51.694;6.256;2023-04-03T01:41:20;3.30;;;2.10;;
3922;SDS011;1976;51.694;6.256;2023-04-03T01:43:47;3.73;;;2.17;;
3922;SDS011;1976;51.694;6.256;2023-04-03T01:46:14;3.30;;;1.80;;
3922;SDS011;1976;51.694;6.256;2023-04-03T01:48:40;10.90;;;2.10;;
3922;SDS011;1976;51.694;6.256;2023-04-03T01:51:06;9.60;;;1.93;;
3922;SDS011;1976;51.694;6.256;2023-04-03T01:53:32;1.53;;;1.43;;
3922;SDS011;1976;51.694;6.256;2023-04-03T01:55:58;2.73;;;1.83;;
3922;SDS011;1976;51.694;6.256;2023-04-03T01:58:24;5.00;;;2.33;;
3922;SDS011;1976;51.694;6.256;2023-04-03T02:00:50;3.87;;;2.10;;
3922;SDS011;1976;51.694;6.256;2023-04-03T02:03:17;3.63;;;1.83;;
3922;SDS011;1976;51.694;6.256;2023-04-03T02:05:42;3.23;;;1.80;;
3922;SDS011;1976;51.694;6.256;2023-04-03T02:08:09;3.90;;;1.90;;
3922;SDS011;1976;51.694;6.256;2023-04-03T02:10:35;5.13;;;2.40;;
3922;SDS011;1976;51.694;6.256;2023-04-03T02:13:01;2.80;;;1.70;;
3922;SDS011;1976;51.694;6.256;2023-04-03T02:15:26;2.30;;;1.67;;
3922;SDS011;1976;51.694;6.256;2023-04-03T02:17:52;2.30;;;2.10;;
3922;SDS011;1976;51.694;6.256;2023-04-03T02:20:18;3.97;;;1.93;;
3922;SDS011;1976;51.694;6.256;2023-04-03T02:22:44;6.23;;;2.00;;
3922;SDS011;1976;51.694;6.256;2023-04-03T02:25:10;3.23;;;1.60;;
3922;SDS011;1976;51.694;6.256;2023-04-03T02:27:37;6.00;;;2.57;;
3922;SDS011;1976;51.694;6.256;2023-04-03T02:30:04;1.60;;;1.50;;
3922;SDS011;1976;51.694;6.256;2023-04-03T02:32:30;6.13;;;2.00;;
3922;SDS011;1976;51.694;6.256;2023-04-03T02:34:56;3.83;;;1.87;;
3922;SDS011;1976;51.694;6.256;2023-04-03T02:37:23;1.80;;;1.70;;
3922;SDS011;1976;51.694;6.256;2023-04-03T02:39:49;2.33;;;2.13;;
3922;SDS011;1976;51.694;6.256;2023-04-03T02:42:15;2.97;;;1.70;;
3922;SDS011;1976;51.694;6.256;2023-04-03T02:44:41;2.77;;;2.57;;
3922;SDS011;1976;51.694;6.256;2023-04-03T02:47:07;1.80;;;1.70;;
3922;SDS011;1976;51.694;6.256;2023-04-03T02:49:33;4.40;;;2.40;;
3922;SDS011;1976;51.694;6.256;2023-04-03T02:51:59;6.03;;;2.03;;
3922;SDS011;1976;51.694;6.256;2023-04-03T02:54:25;2.00;;;1.90;;
3922;SDS011;1976;51.694;6.256;2023-04-03T02:56:53;2.67;;;2.00;;
3922;SDS011;1976;51.694;6.256;2023-04-03T02:59:20;5.93;;;2.20;;
3922;SDS011;1976;51.694;6.256;2023-04-03T03:01:46;5.90;;;2.50;;
3922;SDS011;1976;51.694;6.256;2023-04-03T03:04:12;4.87;;;2.27;;
3922;SDS011;1976;51.694;6.256;2023-04-03T03:06:38;2.70;;;1.67;;
3922;SDS011;1976;51.694;6.256;2023-04-03T03:09:03;3.70;;;2.07;;
3922;SDS011;1976;51.694;6.256;2023-04-03T03:11:30;12.00;;;2.93;;
3922;SDS011;1976;51.694;6.256;2023-04-03T03:13:57;4.00;;;2.23;;
3922;SDS011;1976;51.694;6.256;2023-04-03T03:16:23;3.63;;;2.13;;
3922;SDS011;1976;51.694;6.256;2023-04-03T03:18:48;3.37;;;1.97;;
3922;SDS011;1976;51.694;6.256;2023-04-03T03:21:14;4.87;;;1.80;;
3922;SDS011;1976;51.694;6.256;2023-04-03T03:23:40;4.50;;;2.00;;
3922;SDS011;1976;51.694;6.256;2023-04-03T03:26:07;9.03;;;2.23;;
3922;SDS011;1976;51.694;6.256;2023-04-03T03:28:34;4.93;;;2.33;;
3922;SDS011;1976;51.694;6.256;2023-04-03T03:31:01;3.73;;;1.70;;
3922;SDS011;1976;51.694;6.256;2023-04-03T03:33:27;2.03;;;1.83;;
3922;SDS011;1976;51.694;6.256;2023-04-03T03:35:53;4.63;;;1.87;;
3922;SDS011;1976;51.694;6.256;2023-04-03T03:38:19;3.80;;;1.90;;
3922;SDS011;1976;51.694;6.256;2023-04-03T03:40:47;5.47;;;1.93;;
3922;SDS011;1976;51.694;6.256;2023-04-03T03:43:13;7.07;;;1.80;;
3922;SDS011;1976;51.694;6.256;2023-04-03T03:45:40;13.33;;;2.40;;
3922;SDS011;1976;51.694;6.256;2023-04-03T03:48:06;3.93;;;2.23;;
3922;SDS011;1976;51.694;6.256;2023-04-03T03:50:32;8.93;;;2.00;;
3922;SDS011;1976;51.694;6.256;2023-04-03T03:52:58;4.00;;;1.90;;
3922;SDS011;1976;51.694;6.256;2023-04-03T03:55:24;4.67;;;2.40;;
3922;SDS011;1976;51.694;6.256;2023-04-03T03:57:50;3.10;;;1.90;;
3922;SDS011;1976;51.694;6.256;2023-04-03T04:00:17;4.83;;;2.03;;
3922;SDS011;1976;51.694;6.256;2023-04-03T04:02:43;13.30;;;1.90;;
3922;SDS011;1976;51.694;6.256;2023-04-03T04:05:09;2.17;;;1.80;;
3922;SDS011;1976;51.694;6.256;2023-04-03T04:07:35;7.73;;;1.93;;
3922;SDS011;1976;51.694;6.256;2023-04-03T04:10:01;6.73;;;1.90;;
3922;SDS011;1976;51.694;6.256;2023-04-03T04:12:27;2.27;;;1.83;;
3922;SDS011;1976;51.694;6.256;2023-04-03T04:14:53;4.33;;;1.80;;
3922;SDS011;1976;51.694;6.256;2023-04-03T04:17:19;7.27;;;2.07;;
3922;SDS011;1976;51.694;6.256;2023-04-03T04:19:45;3.17;;;1.57;;
3922;SDS011;1976;51.694;6.256;2023-04-03T04:22:11;7.30;;;2.10;;
3922;SDS011;1976;51.694;6.256;2023-04-03T04:24:37;9.80;;;2.30;;
3922;SDS011;1976;51.694;6.256;2023-04-03T04:27:03;6.43;;;1.80;;
3922;SDS011;1976;51.694;6.256;2023-04-03T04:29:29;4.80;;;1.80;;
3922;SDS011;1976;51.694;6.256;2023-04-03T04:32:00;2.50;;;1.60;;
3922;SDS011;1976;51.694;6.256;2023-04-03T04:34:26;2.70;;;1.70;;
3922;SDS011;1976;51.694;6.256;2023-04-03T04:36:52;2.90;;;1.80;;
3922;SDS011;1976;51.694;6.256;2023-04-03T04:39:17;3.40;;;2.27;;
3922;SDS011;1976;51.694;6.256;2023-04-03T04:41:43;3.70;;;2.20;;
3922;SDS011;1976;51.694;6.256;2023-04-03T04:44:09;1.60;;;1.50;;
3922;SDS011;1976;51.694;6.256;2023-04-03T04:46:35;4.73;;;2.00;;
3922;SDS011;1976;51.694;6.256;2023-04-03T04:49:01;2.30;;;1.57;;
3922;SDS011;1976;51.694;6.256;2023-04-03T04:51:27;3.93;;;2.00;;
3922;SDS011;1976;51.694;6.256;2023-04-03T04:53:53;7.47;;;1.70;;
3922;SDS011;1976;51.694;6.256;2023-04-03T04:56:19;2.87;;;1.67;;
3922;SDS011;1976;51.694;6.256;2023-04-03T04:58:45;3.70;;;1.40;;
3922;SDS011;1976;51.694;6.256;2023-04-03T05:01:11;15.10;;;1.90;;
3922;SDS011;1976;51.694;6.256;2023-04-03T05:03:38;4.30;;;2.10;;
3922;SDS011;1976;51.694;6.256;2023-04-03T05:06:04;4.40;;;2.27;;
3922;SDS011;1976;51.694;6.256;2023-04-03T05:08:30;5.73;;;1.90;;
3922;SDS011;1976;51.694;6.256;2023-04-03T05:10:56;4.60;;;2.50;;
3922;SDS011;1976;51.694;6.256;2023-04-03T05:13:22;2.90;;;2.10;;
3922;SDS011;1976;51.694;6.256;2023-04-03T05:15:48;5.37;;;1.77;;
3922;SDS011;1976;51.694;6.256;2023-04-03T05:18:14;6.07;;;2.30;;
3922;SDS011;1976;51.694;6.256;2023-04-03T05:20:40;3.27;;;1.70;;
3922;SDS011;1976;51.694;6.256;2023-04-03T05:23:08;3.23;;;2.00;;
3922;SDS011;1976;51.694;6.256;2023-04-03T05:25:35;2.33;;;1.73;;
3922;SDS011;1976;51.694;6.256;2023-04-03T05:28:03;4.50;;;2.23;;
3922;SDS011;1976;51.694;6.256;2023-04-03T05:30:28;5.83;;;2.40;;
3922;SDS011;1976;51.694;6.256;2023-04-03T05:32:54;5.73;;;1.63;;
3922;SDS011;1976;51.694;6.256;2023-04-03T05:35:20;5.67;;;2.00;;
3922;SDS011;1976;51.694;6.256;2023-04-03T05:37:46;3.80;;;2.03;;
3922;SDS011;1976;51.694;6.256;2023-04-03T05:40:12;5.97;;;1.67;;
3922;SDS011;1976;51.694;6.256;2023-04-03T05:42:38;4.50;;;2.00;;
3922;SDS011;1976;51.694;6.256;2023-04-03T05:45:04;4.83;;;2.07;;
3922;SDS011;1976;51.694;6.256;2023-04-03T05:47:31;1.80;;;1.70;;
3922;SDS011;1976;51.694;6.256;2023-04-03T05:49:57;2.33;;;2.17;;
3922;SDS011;1976;51.694;6.256;2023-04-03T05:52:25;9.30;;;2.10;;
3922;SDS011;1976;51.694;6.256;2023-04-03T05:54:52;2.70;;;1.93;;
3922;SDS011;1976;51.694;6.256;2023-04-03T05:57:18;5.70;;;1.83;;
3922;SDS011;1976;51.694;6.256;2023-04-03T05:59:45;6.20;;;2.37;;
3922;SDS011;1976;51.694;6.256;2023-04-03T06:02:12;3.17;;;1.80;;
3922;SDS011;1976;51.694;6.256;2023-04-03T06:04:39;7.33;;;1.83;;
3922;SDS011;1976;51.694;6.256;2023-04-03T06:07:05;2.83;;;1.97;;
3922;SDS011;1976;51.694;6.256;2023-04-03T06:09:32;5.93;;;1.90;;
3922;SDS011;1976;51.694;6.256;2023-04-03T06:11:59;2.20;;;1.53;;
3922;SDS011;1976;51.694;6.256;2023-04-03T06:14:25;4.50;;;1.90;;
3922;SDS011;1976;51.694;6.256;2023-04-03T06:16:51;5.60;;;1.53;;
3922;SDS011;1976;51.694;6.256;2023-04-03T06:19:18;2.73;;;2.00;;
3922;SDS011;1976;51.694;6.256;2023-04-03T06:21:45;1.97;;;1.60;;
3922;SDS011;1976;51.694;6.256;2023-04-03T06:24:12;6.67;;;1.93;;
3922;SDS011;1976;51.694;6.256;2023-04-03T06:26:39;2.63;;;1.83;;
3922;SDS011;1976;51.694;6.256;2023-04-03T06:29:05;5.63;;;2.07;;
3922;SDS011;1976;51.694;6.256;2023-04-03T06:31:32;2.90;;;1.70;;
3922;SDS011;1976;51.694;6.256;2023-04-03T06:33:58;2.17;;;1.43;;
3922;SDS011;1976;51.694;6.256;2023-04-03T06:36:23;5.40;;;1.80;;
3922;SDS011;1976;51.694;6.256;2023-04-03T06:38:50;3.27;;;2.00;;
3922;SDS011;1976;51.694;6.256;2023-04-03T06:41:16;2.77;;;1.63;;
3922;SDS011;1976;51.694;6.256;2023-04-03T06:43:42;5.03;;;1.60;;
3922;SDS011;1976;51.694;6.256;2023-04-03T06:46:15;7.00;;;2.30;;
3922;SDS011;1976;51.694;6.256;2023-04-03T06:48:42;7.87;;;2.20;;
3922;SDS011;1976;51.694;6.256;2023-04-03T06:51:19;7.67;;;2.03;;
3922;SDS011;1976;51.694;6.256;2023-04-03T06:53:46;4.50;;;1.90;;
3922;SDS011;1976;51.694;6.256;2023-04-03T06:56:12;2.20;;;1.50;;
3922;SDS011;1976;51.694;6.256;2023-04-03T06:58:39;3.13;;;2.00;;
3922;SDS011;1976;51.694;6.256;2023-04-03T07:01:05;7.10;;;2.23;;
3922;SDS011;1976;51.694;6.256;2023-04-03T07:03:31;2.10;;;1.73;;
3922;SDS011;1976;51.694;6.256;2023-04-03T07:05:56;5.20;;;2.00;;
3922;SDS011;1976;51.694;6.256;2023-04-03T07:08:22;4.30;;;1.87;;
3922;SDS011;1976;51.694;6.256;2023-04-03T07:10:50;4.23;;;1.90;;
3922;SDS011;1976;51.694;6.256;2023-04-03T07:13:16;11.13;;;2.17;;
3922;SDS011;1976;51.694;6.256;2023-04-03T07:15:42;11.00;;;2.17;;
3922;SDS011;1976;51.694;6.256;2023-04-03T07:18:09;5.37;;;2.20;;
3922;SDS011;1976;51.694;6.256;2023-04-03T07:20:35;2.17;;;1.83;;
3922;SDS011;1976;51.694;6.256;2023-04-03T07:23:01;1.93;;;1.73;;
3922;SDS011;1976;51.694;6.256;2023-04-03T07:25:27;3.23;;;2.00;;
3922;SDS011;1976;51.694;6.256;2023-04-03T07:27:53;8.83;;;2.17;;
3922;SDS011;1976;51.694;6.256;2023-04-03T07:30:19;8.90;;;2.17;;
3922;SDS011;1976;51.694;6.256;2023-04-03T07:32:45;2.07;;;1.60;;
3922;SDS011;1976;51.694;6.256;2023-04-03T07:35:11;2.70;;;1.90;;
3922;SDS011;1976;51.694;6.256;2023-04-03T07:37:37;5.40;;;2.43;;
3922;SDS011;1976;51.694;6.256;2023-04-03T07:40:03;1.80;;;1.60;;
3922;SDS011;1976;51.694;6.256;2023-04-03T07:42:29;5.90;;;2.73;;
3922;SDS011;1976;51.694;6.256;2023-04-03T07:44:55;6.10;;;2.20;;
3922;SDS011;1976;51.694;6.256;2023-04-03T07:47:21;2.30;;;1.70;;
3922;SDS011;1976;51.694;6.256;2023-04-03T07:49:47;3.90;;;1.70;;
3922;SDS011;1976;51.694;6.256;2023-04-03T07:52:13;3.30;;;1.57;;
3922;SDS011;1976;51.694;6.256;2023-04-03T07:54:41;2.83;;;1.67;;
3922;SDS011;1976;51.694;6.256;2023-04-03T07:57:07;3.97;;;1.70;;
3922;SDS011;1976;51.694;6.256;2023-04-03T07:59:33;16.23;;;2.20;;
3922;SDS011;1976;51.694;6.256;2023-04-03T08:01:59;2.97;;;1.80;;
3922;SDS011;1976;51.694;6.256;2023-04-03T08:04:25;5.00;;;2.00;;
3922;SDS011;1976;51.694;6.256;2023-04-03T08:06:52;6.10;;;1.67;;
3922;SDS011;1976;51.694;6.256;2023-04-03T08:09:18;3.20;;;1.73;;
3922;SDS011;1976;51.694;6.256;2023-04-03T08:11:44;5.23;;;1.80;;
3922;SDS011;1976;51.694;6.256;2023-04-03T08:14:11;3.90;;;1.73;;
3922;SDS011;1976;51.694;6.256;2023-04-03T08:16:41;4.40;;;1.60;;
3922;SDS011;1976;51.694;6.256;2023-04-03T08:19:07;6.57;;;2.37;;
3922;SDS011;1976;51.694;6.256;2023-04-03T08:21:33;5.07;;;2.10;;
3922;SDS011;1976;51.694;6.256;2023-04-03T08:23:59;10.23;;;1.60;;
3922;SDS011;1976;51.694;6.256;2023-04-03T08:26:25;7.03;;;2.00;;
3922;SDS011;1976;51.694;6.256;2023-04-03T08:28:52;4.03;;;1.93;;
3922;SDS011;1976;51.694;6.256;2023-04-03T08:31:18;9.43;;;1.80;;
3922;SDS011;1976;51.694;6.256;2023-04-03T08:33:45;1.90;;;1.50;;
3922;SDS011;1976;51.694;6.256;2023-04-03T08:36:24;1.77;;;1.20;;
3922;SDS011;1976;51.694;6.256;2023-04-03T08:38:51;1.60;;;1.50;;
3922;SDS011;1976;51.694;6.256;2023-04-03T08:46:23;3.33;;;1.50;;
3922;SDS011;1976;51.694;6.256;2023-04-03T08:48:59;2.60;;;1.50;;
3922;SDS011;1976;51.694;6.256;2023-04-03T08:51:25;3.30;;;1.70;;
3922;SDS011;1976;51.694;6.256;2023-04-03T08:56:24;5.40;;;1.90;;
3922;SDS011;1976;51.694;6.256;2023-04-03T08:58:52;1.47;;;1.30;;
3922;SDS011;1976;51.694;6.256;2023-04-03T09:01:23;3.73;;;1.67;;
3922;SDS011;1976;51.694;6.256;2023-04-03T09:03:50;2.30;;;1.23;;
3922;SDS011;1976;51.694;6.256;2023-04-03T09:11:56;1.40;;;1.30;;
3922;SDS011;1976;51.694;6.256;2023-04-03T09:14:49;5.70;;;1.23;;
3922;SDS011;1976;51.694;6.256;2023-04-03T09:17:26;4.83;;;1.23;;
3922;SDS011;1976;51.694;6.256;2023-04-03T09:22:40;2.27;;;1.30;;
3922;SDS011;1976;51.694;6.256;2023-04-03T09:27:33;2.43;;;1.37;;
3922;SDS011;1976;51.694;6.256;2023-04-03T09:29:59;17.43;;;1.50;;
3922;SDS011;1976;51.694;6.256;2023-04-03T09:32:32;2.93;;;1.20;;
3922;SDS011;1976;51.694;6.256;2023-04-03T09:34:59;2.00;;;1.80;;
3922;SDS011;1976;51.694;6.256;2023-04-03T09:37:36;2.73;;;1.00;;
3922;SDS011;1976;51.694;6.256;2023-04-03T09:40:03;1.40;;;1.20;;
3922;SDS011;1976;51.694;6.256;2023-04-03T09:42:30;2.30;;;0.83;;
3922;SDS011;1976;51.694;6.256;2023-04-03T09:44:59;4.63;;;1.20;;
3922;SDS011;1976;51.694;6.256;2023-04-03T09:47:26;1.20;;;1.10;;
3922;SDS011;1976;51.694;6.256;2023-04-03T09:52:44;1.90;;;1.40;;
3922;SDS011;1976;51.694;6.256;2023-04-03T09:55:20;1.80;;;1.30;;
3922;SDS011;1976;51.694;6.256;2023-04-03T09:57:51;1.50;;;1.00;;
3922;SDS011;1976;51.694;6.256;2023-04-03T10:00:22;2.30;;;0.80;;
3922;SDS011;1976;51.694;6.256;2023-04-03T10:02:53;2.07;;;1.10;;
3922;SDS011;1976;51.694;6.256;2023-04-03T10:08:15;1.20;;;1.10;;
3922;SDS011;1976;51.694;6.256;2023-04-03T10:10:46;1.37;;;1.20;;
3922;SDS011;1976;51.694;6.256;2023-04-03T10:13:14;1.30;;;1.17;;
3922;SDS011;1976;51.694;6.256;2023-04-03T10:15:46;8.40;;;1.40;;
3922;SDS011;1976;51.694;6.256;2023-04-03T10:18:19;1.47;;;1.37;;
3922;SDS011;1976;51.694;6.256;2023-04-03T10:20:52;2.13;;;1.20;;
3922;SDS011;1976;51.694;6.256;2023-04-03T10:23:33;3.17;;;1.10;;
3922;SDS011;1976;51.694;6.256;2023-04-03T10:28:42;5.13;;;1.27;;
3922;SDS011;1976;51.694;6.256;2023-04-03T10:36:17;2.13;;;0.93;;
3922;SDS011;1976;51.694;6.256;2023-04-03T10:44:31;1.23;;;1.03;;
3922;SDS011;1976;51.694;6.256;2023-04-03T10:47:02;6.10;;;1.33;;
3922;SDS011;1976;51.694;6.256;2023-04-03T10:57:23;1.33;;;1.23;;
3922;SDS011;1976;51.694;6.256;2023-04-03T10:59:56;1.87;;;1.27;;
3922;SDS011;1976;51.694;6.256;2023-04-03T11:02:48;2.50;;;1.07;;
3922;SDS011;1976;51.694;6.256;2023-04-03T11:08:00;1.17;;;1.00;;
3922;SDS011;1976;51.694;6.256;2023-04-03T11:10:35;1.37;;;1.13;;
3922;SDS011;1976;51.694;6.256;2023-04-03T11:15:56;2.00;;;1.00;;
3922;SDS011;1976;51.694;6.256;2023-04-03T11:23:41;1.30;;;0.97;;
3922;SDS011;1976;51.694;6.256;2023-04-03T11:26:10;3.13;;;1.00;;
3922;SDS011;1976;51.694;6.256;2023-04-03T11:28:39;2.60;;;1.30;;
3922;SDS011;1976;51.694;6.256;2023-04-03T11:31:10;1.17;;;1.03;;
3922;SDS011;1976;51.694;6.256;2023-04-03T11:36:23;1.47;;;0.90;;
3922;SDS011;1976;51.694;6.256;2023-04-03T11:39:38;1.37;;;1.00;;
3922;SDS011;1976;51.694;6.256;2023-04-03T11:41:48;1.80;;;1.00;;
3922;SDS011;1976;51.694;6.256;2023-04-03T11:44:32;1.00;;;1.00;;
3922;SDS011;1976;51.694;6.256;2023-04-03T11:46:59;9.17;;;1.10;;
3922;SDS011;1976;51.694;6.256;2023-04-03T11:52:10;1.70;;;1.10;;
3922;SDS011;1976;51.694;6.256;2023-04-03T11:59:50;2.07;;;1.20;;
3922;SDS011;1976;51.694;6.256;2023-04-03T12:02:35;1.63;;;1.30;;
3922;SDS011;1976;51.694;6.256;2023-04-03T12:10:37;4.20;;;1.73;;
3922;SDS011;1976;51.694;6.256;2023-04-03T12:13:12;2.60;;;1.70;;
3922;SDS011;1976;51.694;6.256;2023-04-03T12:15:44;3.57;;;1.00;;
3922;SDS011;1976;51.694;6.256;2023-04-03T12:21:16;4.53;;;1.10;;
3922;SDS011;1976;51.694;6.256;2023-04-03T12:32:04;2.57;;;1.30;;
3922;SDS011;1976;51.694;6.256;2023-04-03T12:39:55;2.40;;;1.50;;
3922;SDS011;1976;51.694;6.256;2023-04-03T12:47:25;4.00;;;1.13;;
3922;SDS011;1976;51.694;6.256;2023-04-03T12:49:53;4.93;;;1.37;;
3922;SDS011;1976;51.694;6.256;2023-04-03T12:52:27;1.47;;;1.20;;
3922;SDS011;1976;51.694;6.256;2023-04-03T12:55:14;2.00;;;1.30;;
3922;SDS011;1976;51.694;6.256;2023-04-03T12:57:40;3.53;;;1.20;;
3922;SDS011;1976;51.694;6.256;2023-04-03T13:02:51;3.67;;;1.70;;
3922;SDS011;1976;51.694;6.256;2023-04-03T13:05:18;2.50;;;1.30;;
3922;SDS011;1976;51.694;6.256;2023-04-03T13:07:44;1.83;;;1.20;;
3922;SDS011;1976;51.694;6.256;2023-04-03T13:10:15;3.37;;;1.20;;
3922;SDS011;1976;51.694;6.256;2023-04-03T13:12:46;2.00;;;1.40;;
3922;SDS011;1976;51.694;6.256;2023-04-03T13:15:14;1.90;;;1.17;;
3922;SDS011;1976;51.694;6.256;2023-04-03T13:17:45;1.60;;;1.13;;
3922;SDS011;1976;51.694;6.256;2023-04-03T13:20:17;2.03;;;1.37;;
3922;SDS011;1976;51.694;6.256;2023-04-03T13:25:14;1.67;;;1.20;;
3922;SDS011;1976;51.694;6.256;2023-04-03T13:27:40;1.63;;;1.27;;
3922;SDS011;1976;51.694;6.256;2023-04-03T13:30:22;3.43;;;1.20;;
3922;SDS011;1976;51.694;6.256;2023-04-03T13:32:49;1.30;;;1.20;;
3922;SDS011;1976;51.694;6.256;2023-04-03T13:40:49;2.63;;;1.40;;
3922;SDS011;1976;51.694;6.256;2023-04-03T13:43:17;1.20;;;1.00;;
3922;SDS011;1976;51.694;6.256;2023-04-03T13:45:58;1.63;;;1.10;;
3922;SDS011;1976;51.694;6.256;2023-04-03T13:48:34;4.40;;;1.07;;
3922;SDS011;1976;51.694;6.256;2023-04-03T13:51:05;3.73;;;1.50;;
3922;SDS011;1976;51.694;6.256;2023-04-03T13:53:33;4.53;;;1.40;;
3922;SDS011;1976;51.694;6.256;2023-04-03T13:56:05;1.47;;;1.20;;
3922;SDS011;1976;51.694;6.256;2023-04-03T13:58:33;1.33;;;1.23;;
3922;SDS011;1976;51.694;6.256;2023-04-03T14:03:42;2.33;;;1.67;;
3922;SDS011;1976;51.694;6.256;2023-04-03T14:06:13;24.43;;;2.10;;
3922;SDS011;1976;51.694;6.256;2023-04-03T14:08:39;3.70;;;1.30;;
3922;SDS011;1976;51.694;6.256;2023-04-03T14:11:06;4.50;;;1.40;;
3922;SDS011;1976;51.694;6.256;2023-04-03T14:13:34;4.53;;;1.40;;
3922;SDS011;1976;51.694;6.256;2023-04-03T14:16:00;1.10;;;1.00;;
3922;SDS011;1976;51.694;6.256;2023-04-03T14:18:26;5.30;;;1.73;;
3922;SDS011;1976;51.694;6.256;2023-04-03T14:20:52;2.10;;;1.33;;
3922;SDS011;1976;51.694;6.256;2023-04-03T14:23:18;1.93;;;1.07;;
3922;SDS011;1976;51.694;6.256;2023-04-03T14:25:45;1.50;;;1.40;;
3922;SDS011;1976;51.694;6.256;2023-04-03T14:28:15;3.40;;;1.47;;
3922;SDS011;1976;51.694;6.256;2023-04-03T14:30:42;3.30;;;1.33;;
3922;SDS011;1976;51.694;6.256;2023-04-03T14:33:10;5.77;;;1.60;;
3922;SDS011;1976;51.694;6.256;2023-04-03T14:35:39;1.27;;;1.10;;
3922;SDS011;1976;51.694;6.256;2023-04-03T14:38:11;6.97;;;1.60;;
3922;SDS011;1976;51.694;6.256;2023-04-03T14:40:38;2.20;;;1.20;;
3922;SDS011;1976;51.694;6.256;2023-04-03T14:43:05;2.40;;;1.60;;
3922;SDS011;1976;51.694;6.256;2023-04-03T14:45:31;3.17;;;1.30;;
3922;SDS011;1976;51.694;6.256;2023-04-03T14:47:57;8.87;;;1.53;;
3922;SDS011;1976;51.694;6.256;2023-04-03T14:50:24;6.63;;;1.47;;
3922;SDS011;1976;51.694;6.256;2023-04-03T14:52:52;2.07;;;1.27;;
3922;SDS011;1976;51.694;6.256;2023-04-03T14:55:20;2.00;;;1.40;;
3922;SDS011;1976;51.694;6.256;2023-04-03T14:57:47;1.53;;;1.00;;
3922;SDS011;1976;51.694;6.256;2023-04-03T15:00:14;2.07;;;1.33;;
3922;SDS011;1976;51.694;6.256;2023-04-03T15:02:41;1.93;;;1.23;;
3922;SDS011;1976;51.694;6.256;2023-04-03T15:05:10;2.63;;;1.13;;
3922;SDS011;1976;51.694;6.256;2023-04-03T15:07:39;6.73;;;1.10;;
3922;SDS011;1976;51.694;6.256;2023-04-03T15:10:17;2.23;;;1.20;;
3922;SDS011;1976;51.694;6.256;2023-04-03T15:12:44;1.50;;;1.10;;
3922;SDS011;1976;51.694;6.256;2023-04-03T15:15:10;1.40;;;1.20;;
3922;SDS011;1976;51.694;6.256;2023-04-03T15:17:37;3.60;;;1.80;;
3922;SDS011;1976;51.694;6.256;2023-04-03T15:20:03;4.80;;;1.30;;
3922;SDS011;1976;51.694;6.256;2023-04-03T15:22:30;1.67;;;1.30;;
3922;SDS011;1976;51.694;6.256;2023-04-03T15:24:56;1.40;;;1.30;;
3922;SDS011;1976;51.694;6.256;2023-04-03T15:27:22;2.30;;;1.60;;
3922;SDS011;1976;51.694;6.256;2023-04-03T15:29:48;3.37;;;1.50;;
3922;SDS011;1976;51.694;6.256;2023-04-03T15:32:14;2.90;;;1.93;;
3922;SDS011;1976;51.694;6.256;2023-04-03T15:34:40;5.27;;;2.83;;
3922;SDS011;1976;51.694;6.256;2023-04-03T15:37:06;11.20;;;6.97;;
3922;SDS011;1976;51.694;6.256;2023-04-03T15:39:32;5.50;;;1.80;;
3922;SDS011;1976;51.694;6.256;2023-04-03T15:41:58;4.53;;;1.50;;
3922;SDS011;1976;51.694;6.256;2023-04-03T15:44:30;2.40;;;1.27;;
3922;SDS011;1976;51.694;6.256;2023-04-03T15:46:56;2.70;;;1.53;;
3922;SDS011;1976;51.694;6.256;2023-04-03T15:49:23;2.83;;;1.60;;
3922;SDS011;1976;51.694;6.256;2023-04-03T15:51:49;1.27;;;1.20;;
3922;SDS011;1976;51.694;6.256;2023-04-03T15:54:15;4.13;;;1.40;;
3922;SDS011;1976;51.694;6.256;2023-04-03T15:56:42;6.00;;;1.83;;
3922;SDS011;1976;51.694;6.256;2023-04-03T15:59:07;3.37;;;1.60;;
3922;SDS011;1976;51.694;6.256;2023-04-03T16:01:33;2.10;;;1.40;;
3922;SDS011;1976;51.694;6.256;2023-04-03T16:03:59;1.90;;;1.53;;
3922;SDS011;1976;51.694;6.256;2023-04-03T16:06:25;5.33;;;1.87;;
3922;SDS011;1976;51.694;6.256;2023-04-03T16:08:51;4.17;;;1.50;;
3922;SDS011;1976;51.694;6.256;2023-04-03T16:11:21;2.97;;;1.93;;
3922;SDS011;1976;51.694;6.256;2023-04-03T16:13:47;4.97;;;2.03;;
3922;SDS011;1976;51.694;6.256;2023-04-03T16:16:13;6.13;;;1.87;;
3922;SDS011;1976;51.694;6.256;2023-04-03T16:18:39;4.43;;;2.20;;
3922;SDS011;1976;51.694;6.256;2023-04-03T16:21:06;5.83;;;2.10;;
3922;SDS011;1976;51.694;6.256;2023-04-03T16:23:33;4.50;;;1.73;;
3922;SDS011;1976;51.694;6.256;2023-04-03T16:25:59;2.10;;;1.47;;
3922;SDS011;1976;51.694;6.256;2023-04-03T16:28:27;4.97;;;2.00;;
3922;SDS011;1976;51.694;6.256;2023-04-03T16:30:53;7.27;;;1.80;;
3922;SDS011;1976;51.694;6.256;2023-04-03T16:33:19;5.07;;;1.50;;
3922;SDS011;1976;51.694;6.256;2023-04-03T16:35:47;2.53;;;1.67;;
3922;SDS011;1976;51.694;6.256;2023-04-03T16:38:13;3.20;;;1.40;;
3922;SDS011;1976;51.694;6.256;2023-04-03T16:40:40;3.33;;;1.50;;
3922;SDS011;1976;51.694;6.256;2023-04-03T16:43:06;2.70;;;1.70;;
3922;SDS011;1976;51.694;6.256;2023-04-03T16:45:32;2.30;;;1.60;;
3922;SDS011;1976;51.694;6.256;2023-04-03T16:47:58;7.20;;;1.93;;
3922;SDS011;1976;51.694;6.256;2023-04-03T16:50:24;3.27;;;1.63;;
3922;SDS011;1976;51.694;6.256;2023-04-03T16:52:50;4.50;;;1.87;;
3922;SDS011;1976;51.694;6.256;2023-04-03T16:55:16;1.40;;;1.30;;
3922;SDS011;1976;51.694;6.256;2023-04-03T16:57:42;7.90;;;1.73;;
3922;SDS011;1976;51.694;6.256;2023-04-03T17:00:08;3.87;;;1.80;;
3922;SDS011;1976;51.694;6.256;2023-04-03T17:02:34;8.17;;;2.10;;
3922;SDS011;1976;51.694;6.256;2023-04-03T17:05:00;4.70;;;1.93;;
3922;SDS011;1976;51.694;6.256;2023-04-03T17:07:26;2.70;;;1.60;;
3922;SDS011;1976;51.694;6.256;2023-04-03T17:09:52;4.70;;;2.17;;